Time;durP1;ratioP1;P1;durP2;ratioP2;P2;SDS_P1;SDS_P2;PMS_P1;PMS_P2;Temp;Humidity;BMP_temperature;BMP_pressure;BME280_temperature;BME280_humidity;BME280_pressure;Samples;Min_cycle;Max_cycle;Signal;HPM_P1;HPM_P2
2022/08/04 00:02:40;;;;;;;6.32;3.38;;;;;;;24.02;100.00;101252.50;5104343;27;20053;-61
2022/08/04 00:05:18;;;;;;;;;;;;;;;23.97;100.00;101249.66;5109386;27;20647;-62
2022/08/04 00:08:00;;;;;;;6.53;3.15;;;;;;;23.97;100.00;101249.66;5104244;27;19924;-61
2022/08/04 00:10:27;;;;;;;7.75;3.00;;;;;;;23.91;100.00;101251.38;5099222;27;20062;-63
2022/08/04 00:12:55;;;;;;;7.37;3.07;;;;;;;23.88;100.00;101243.81;5099541;27;20051;-61
2022/08/04 00:15:23;;;;;;;8.67;3.20;;;;;;;23.85;100.00;101247.72;5111045;27;20051;-59
2022/08/04 00:18:15;;;;;;;;;;;;;;;23.78;100.00;101255.03;5099825;28;20286;-60
2022/08/04 00:20:42;;;;;;;8.10;4.03;;;;;;;23.75;100.00;101241.25;5099924;27;19923;-61
2022/08/04 00:23:09;;;;;;;10.85;6.32;;;;;;;23.76;100.00;101240.22;5097726;27;20618;-60
2022/08/04 00:25:40;;;;;;;13.65;6.22;;;;;;;23.74;100.00;101237.75;5108247;27;20540;-60
2022/08/04 00:28:07;;;;;;;8.98;4.22;;;;;;;23.71;100.00;101235.50;5114864;27;20043;-61
2022/08/04 00:30:33;;;;;;;9.10;4.55;;;;;;;23.67;100.00;101243.16;5097437;27;20522;-61
2022/08/04 00:33:01;;;;;;;6.35;3.75;;;;;;;23.68;100.00;101238.66;5115123;27;20051;-61
2022/08/04 00:35:28;;;;;;;7.07;3.17;;;;;;;23.66;100.00;101241.56;5106390;27;20047;-62
2022/08/04 00:37:54;;;;;;;6.13;3.05;;;;;;;23.64;100.00;101238.28;5113865;27;20578;-61
2022/08/04 00:40:27;;;;;;;6.80;3.38;;;;;;;23.64;100.00;101218.72;5121180;27;20460;-62
2022/08/04 00:43:23;;;;;;;6.32;3.03;;;;;;;23.61;100.00;101227.19;5105832;27;20131;-62
2022/08/04 00:46:13;;;;;;;6.00;3.20;;;;;;;23.53;100.00;101212.25;5113214;27;20054;-61
2022/08/04 00:49:04;;;;;;;8.45;4.38;;;;;;;23.49;100.00;101225.25;5090713;28;20128;-61
2022/08/04 00:51:31;;;;;;;9.52;3.88;;;;;;;23.41;100.00;101212.16;5118542;27;20499;-62
2022/08/04 00:54:05;;;;;;;7.50;3.72;;;;;;;23.40;100.00;101215.06;5109550;27;20526;-62
2022/08/04 00:56:56;;;;;;;7.40;3.60;;;;;;;23.34;100.00;101215.94;5107221;27;20082;-61
2022/08/04 00:59:50;;;;;;;8.38;3.42;;;;;;;23.27;100.00;101218.69;5108306;27;20132;-62
2022/08/04 01:02:38;;;;;;;7.03;3.60;;;;;;;23.22;100.00;101216.66;5103373;27;20059;-61
2022/08/04 01:05:06;;;;;;;;;;;;;;;23.18;100.00;101210.13;5104293;27;20075;-62
2022/08/04 01:07:51;;;;;;;;;;;;;;;23.13;100.00;101209.97;5103209;27;20374;-62
2022/08/04 01:10:20;;;;;;;6.57;3.55;;;;;;;23.06;100.00;101209.22;5095491;27;20308;-61
2022/08/04 01:12:53;;;;;;;8.05;3.20;;;;;;;23.01;100.00;101206.34;5113754;27;20090;-59
2022/08/04 01:15:43;;;;;;;8.38;3.80;;;;;;;22.94;100.00;101208.28;5105597;27;20054;-61
2022/08/04 01:19:04;;;;;;;8.77;3.85;;;;;;;22.88;100.00;101197.41;5102682;27;20487;-61
2022/08/04 01:22:02;;;;;;;7.53;4.28;;;;;;;22.83;100.00;101199.09;5070231;28;20063;-62
2022/08/04 01:24:29;;;;;;;9.50;4.03;;;;;;;22.77;100.00;101194.63;5108209;27;20054;-61
2022/08/04 01:27:25;;;;;;;10.00;4.38;;;;;;;22.71;100.00;101191.78;5101634;27;20567;-61
2022/08/04 01:29:57;;;;;;;7.25;4.32;;;;;;;22.66;100.00;101191.63;5103728;28;20155;-61
2022/08/04 01:32:35;;;;;;;8.77;4.55;;;;;;;22.62;100.00;101182.41;5102667;28;20055;-61
2022/08/04 01:35:12;;;;;;;6.38;4.07;;;;;;;22.62;100.00;101187.75;5099586;28;20054;-62
2022/08/04 01:38:20;;;;;;;10.43;3.95;;;;;;;22.62;100.00;101179.72;5113147;28;20044;-61
2022/08/04 01:40:51;;;;;;;11.60;8.05;;;;;;;22.60;100.00;101192.50;5088775;27;20085;-61
2022/08/04 01:43:19;;;;;;;11.45;5.93;;;;;;;22.60;100.00;101183.63;5103692;28;20484;-62
2022/08/04 01:45:50;;;;;;;8.48;4.70;;;;;;;22.56;100.00;101182.44;5095461;28;20078;-60
2022/08/04 01:48:23;;;;;;;8.60;4.40;;;;;;;22.53;100.00;101181.03;5119193;28;20051;-61
2022/08/04 01:50:56;;;;;;;8.07;4.18;;;;;;;22.50;100.00;101176.94;5092867;28;20503;-60
2022/08/04 01:53:29;;;;;;;10.65;4.10;;;;;;;22.47;100.00;101179.22;5109041;28;20060;-62
2022/08/04 01:55:56;;;;;;;9.35;4.32;;;;;;;22.43;100.00;101178.84;5100086;28;20415;-62
2022/08/04 01:58:24;;;;;;;8.52;4.47;;;;;;;22.41;100.00;101172.06;5102176;28;20069;-61
2022/08/04 02:01:08;;;;;;;11.20;5.03;;;;;;;22.39;100.00;101182.16;5117114;27;20048;-62
2022/08/04 02:03:38;;;;;;;9.15;4.63;;;;;;;22.35;100.00;101173.75;5094321;27;20050;-61
2022/08/04 02:06:56;;;;;;;9.63;4.47;;;;;;;22.33;100.00;101165.13;5106932;27;20499;-61
2022/08/04 02:09:43;;;;;;;7.30;4.43;;;;;;;22.29;100.00;101167.41;5097176;27;20408;-62
2022/08/04 02:12:51;;;;;;;11.90;9.18;;;;;;;22.28;100.00;101167.63;5103371;27;20052;-60
2022/08/04 02:15:24;;;;;;;8.35;4.90;;;;;;;22.24;100.00;101153.88;5098324;27;20048;-61
2022/08/04 02:18:03;;;;;;;9.65;4.70;;;;;;;22.25;100.00;101162.72;5105839;27;20055;-62
2022/08/04 02:20:34;;;;;;;7.75;4.63;;;;;;;22.21;100.00;101158.78;5098219;28;20047;-63
2022/08/04 02:23:03;;;;;;;10.43;5.18;;;;;;;22.16;100.00;101150.63;5110822;28;20039;-60
2022/08/04 02:25:38;;;;;;;10.02;4.88;;;;;;;22.15;100.00;101156.97;5099948;28;20056;-60
2022/08/04 02:28:20;;;;;;;9.10;4.93;;;;;;;22.14;100.00;101147.34;5085653;28;20035;-60
2022/08/04 02:31:01;;;;;;;9.50;4.60;;;;;;;22.10;100.00;101150.44;5099532;28;20486;-60
2022/08/04 02:33:40;;;;;;;11.75;4.80;;;;;;;22.09;100.00;101143.47;5095485;27;20065;-61
2022/08/04 02:36:12;;;;;;;13.32;6.20;;;;;;;22.07;100.00;101144.69;5103903;27;20053;-61
2022/08/04 02:38:50;;;;;;;11.20;5.90;;;;;;;22.03;100.00;101139.00;5102213;27;20028;-61
2022/08/04 02:41:20;;;;;;;9.30;5.07;;;;;;;22.02;100.00;101137.34;5114729;27;20071;-61
2022/08/04 02:43:48;;;;;;;9.35;4.65;;;;;;;21.99;100.00;101135.09;5101915;27;20063;-61
2022/08/04 02:46:19;;;;;;;11.30;4.75;;;;;;;21.98;100.00;101129.97;5099963;27;20075;-61
2022/08/04 02:48:46;;;;;;;;;;;;;;;22.00;100.00;101123.38;5097524;27;20043;-60
2022/08/04 02:51:15;;;;;;;9.90;4.38;;;;;;;21.98;100.00;101136.13;5107844;27;20474;-61
2022/08/04 02:53:42;;;;;;;10.30;4.35;;;;;;;21.95;100.00;101127.72;5106289;27;20571;-61
2022/08/04 02:56:11;;;;;;;6.72;4.07;;;;;;;21.95;100.00;101127.72;5122480;27;20054;-60
2022/08/04 02:58:41;;;;;;;8.57;4.22;;;;;;;21.93;100.00;101127.94;5112180;27;20418;-61
2022/08/04 03:01:07;;;;;;;7.93;4.03;;;;;;;21.89;100.00;101124.06;5101658;27;20050;-60
2022/08/04 03:03:50;;;;;;;7.30;4.20;;;;;;;21.84;100.00;101132.72;5105581;27;20047;-60
2022/08/04 03:06:27;;;;;;;6.82;4.15;;;;;;;21.78;100.00;101130.91;5101763;27;20058;-60
2022/08/04 03:09:35;;;;;;;10.85;4.22;;;;;;;21.70;100.00;101126.63;5110930;27;20572;-62
2022/08/04 03:12:41;;;;;;;8.73;4.15;;;;;;;21.65;100.00;101128.28;5076567;28;20046;-61
2022/08/04 03:15:33;;;;;;;6.00;3.92;;;;;;;21.60;100.00;101126.28;5081264;27;20372;-60
2022/08/04 03:18:26;;;;;;;9.15;3.65;;;;;;;21.61;100.00;101121.75;5113849;27;20081;-61
2022/08/04 03:21:24;;;;;;;7.78;3.88;;;;;;;21.59;100.00;101119.28;5102609;28;20051;-59
2022/08/04 03:23:59;;;;;;;8.90;4.25;;;;;;;21.56;100.00;101121.56;5100355;27;20062;-60
2022/08/04 03:27:03;;;;;;;9.90;4.32;;;;;;;21.58;100.00;101117.66;5111863;27;20062;-59
2022/08/04 03:29:54;;;;;;;10.45;4.50;;;;;;;21.56;100.00;101114.38;5108611;27;20085;-60
2022/08/04 03:32:47;;;;;;;7.80;4.10;;;;;;;21.60;100.00;101117.44;5112695;27;20043;-61
2022/08/04 03:35:33;;;;;;;8.20;4.10;;;;;;;21.57;100.00;101120.53;5100138;27;20442;-60
2022/08/04 03:38:21;;;;;;;10.02;4.30;;;;;;;21.59;100.00;101113.13;5103551;27;20053;-61
2022/08/04 03:40:54;;;;;;;10.13;4.30;;;;;;;21.53;100.00;101109.47;5098730;27;20165;-60
2022/08/04 03:43:29;;;;;;;9.95;4.10;;;;;;;21.52;100.00;101111.31;5110421;27;20052;-61
2022/08/04 03:46:53;;;;;;;9.80;4.18;;;;;;;21.52;100.00;101113.16;5104129;27;20047;-59
2022/08/04 03:49:44;;;;;;;7.15;4.10;;;;;;;21.50;100.00;101107.19;5109302;27;20047;-60
2022/08/04 03:55:39;;;;;;;9.05;4.50;;;;;;;21.46;100.00;101103.31;5107289;27;20047;-61
2022/08/04 03:58:30;;;;;;;;;;;;;;;21.44;100.00;101102.72;5110904;27;20058;-62
2022/08/04 04:01:34;;;;;;;6.95;4.18;;;;;;;21.42;100.00;101102.06;5104457;27;19930;-61
2022/08/04 04:04:46;;;;;;;8.65;4.50;;;;;;;21.37;100.00;101096.56;5105479;27;20043;-61
2022/08/04 04:07:43;;;;;;;8.55;4.03;;;;;;;21.32;100.00;101094.50;5095026;27;20125;-61
2022/08/04 04:10:28;;;;;;;6.78;4.40;;;;;;;21.31;100.00;101101.72;5097583;27;20559;-61
2022/08/04 04:13:03;;;;;;;7.80;4.20;;;;;;;21.27;100.00;101100.50;5093300;28;20043;-61
2022/08/04 04:15:59;;;;;;;8.88;4.32;;;;;;;21.28;100.00;101104.78;5097471;27;20058;-60
2022/08/04 04:18:55;;;;;;;13.50;4.70;;;;;;;21.27;100.00;101097.81;5117695;27;20729;-61
2022/08/04 04:21:53;;;;;;;7.57;3.25;;;;;;;21.30;100.00;101096.56;5092005;27;20208;-61
2022/08/04 04:24:48;;;;;;;8.93;3.92;;;;;;;21.33;100.00;101099.66;5105279;27;20118;-61
2022/08/04 04:27:32;;;;;;;8.20;4.35;;;;;;;21.37;100.00;101096.56;5093032;27;20044;-61
2022/08/04 04:30:06;;;;;;;8.88;3.70;;;;;;;21.39;100.00;101097.19;5100598;27;20055;-61
2022/08/04 04:32:54;;;;;;;9.25;3.58;;;;;;;21.39;100.00;101091.84;5097482;27;20054;-61
2022/08/04 04:35:33;;;;;;;7.18;3.72;;;;;;;21.40;100.00;101096.94;5099152;27;20172;-61
2022/08/04 04:38:33;;;;;;;7.70;3.53;;;;;;;21.39;100.00;101108.66;5100801;27;20424;-61
2022/08/04 04:41:54;;;;;;;11.60;4.05;;;;;;;21.35;100.00;101122.66;5108896;27;20059;-61
2022/08/04 04:45:11;;;;;;;9.45;3.80;;;;;;;21.38;100.00;101119.53;5044195;28;20049;-61
2022/08/04 04:47:53;;;;;;;13.77;3.55;;;;;;;21.38;100.00;101124.88;5055097;28;20500;-61
2022/08/04 04:50:54;;;;;;;9.75;3.70;;;;;;;21.41;100.00;101125.28;5088078;28;20067;-61
2022/08/04 04:53:52;;;;;;;11.77;3.25;;;;;;;21.47;100.00;101129.81;5100611;28;20062;-61
2022/08/04 04:56:42;;;;;;;6.40;3.42;;;;;;;21.48;100.00;101133.28;5098042;27;20058;-61
2022/08/04 04:59:14;;;;;;;8.75;3.78;;;;;;;21.54;100.00;101135.09;5123329;27;20047;-61
2022/08/04 05:01:52;;;;;;;9.15;3.13;;;;;;;21.61;100.00;101130.56;5096576;27;20053;-61
2022/08/04 05:04:54;;;;;;;9.48;3.63;;;;;;;21.66;100.00;101138.75;5111970;27;20047;-60
2022/08/04 05:07:23;;;;;;;11.55;4.35;;;;;;;21.65;100.00;101153.13;5108558;27;20532;-61
2022/08/04 05:10:22;;;;;;;7.63;3.42;;;;;;;21.75;100.00;101152.69;5113059;27;20101;-61
2022/08/04 05:12:49;;;;;;;9.52;3.50;;;;;;;21.78;100.00;101159.44;5097709;27;20047;-61
2022/08/04 05:15:41;;;;;;;8.25;3.40;;;;;;;21.88;100.00;101163.31;5095838;27;20257;-61
2022/08/04 05:18:13;;;;;;;10.40;3.58;;;;;;;21.94;100.00;101161.63;5091444;27;20058;-61
2022/08/04 05:20:45;;;;;;;8.05;3.38;;;;;;;22.01;100.00;101169.59;5108660;27;20059;-61
2022/08/04 05:23:15;;;;;;;8.43;4.10;;;;;;;22.05;100.00;101165.47;5104420;27;20506;-61
2022/08/04 05:25:48;;;;;;;12.60;3.78;;;;;;;22.10;100.00;101160.31;5110177;27;20061;-61
2022/08/04 05:28:31;;;;;;;10.23;3.88;;;;;;;22.19;100.00;101166.22;5108529;27;20563;-61
2022/08/04 05:31:05;;;;;;;11.32;3.83;;;;;;;22.26;100.00;101162.50;5094171;27;20051;-61
2022/08/04 05:33:38;;;;;;;8.65;3.90;;;;;;;22.34;100.00;101163.28;5115285;27;20051;-61
2022/08/04 05:36:10;;;;;;;10.55;3.22;;;;;;;22.44;100.00;101168.94;5104838;28;20043;-61
2022/08/04 05:38:58;;;;;;;8.18;3.78;;;;;;;22.54;100.00;101174.63;5104743;28;20039;-61
2022/08/04 05:41:26;;;;;;;9.15;3.53;;;;;;;22.64;100.00;101174.97;5099986;28;21092;-61
2022/08/04 05:44:19;;;;;;;10.07;3.95;;;;;;;22.74;100.00;101168.31;5106783;27;20058;-61
2022/08/04 05:46:49;;;;;;;16.17;4.63;;;;;;;22.83;100.00;101172.34;5101879;27;20051;-59
2022/08/04 05:49:22;;;;;;;16.40;4.57;;;;;;;22.88;100.00;101161.81;5102248;28;20079;-61
2022/08/04 05:51:49;;;;;;;12.73;4.03;;;;;;;22.94;100.00;101160.94;5093920;27;20147;-60
2022/08/04 05:54:17;;;;;;;7.35;4.20;;;;;;;23.01;100.00;101156.34;5080537;28;20083;-59
2022/08/04 05:56:45;;;;;;;12.45;4.20;;;;;;;23.06;100.00;101153.84;5116975;28;20657;-58
2022/08/04 05:59:13;;;;;;;11.25;4.35;;;;;;;23.17;100.00;101159.50;5091677;28;20051;-62
2022/08/04 06:01:40;;;;;;;12.02;4.10;;;;;;;23.22;100.00;101156.97;5102003;28;20054;-60
2022/08/04 06:04:26;;;;;;;9.95;3.95;;;;;;;23.29;100.00;101155.88;5106677;28;20581;-60
2022/08/04 06:06:53;;;;;;;10.88;4.28;;;;;;;23.36;100.00;101161.13;5109838;27;20057;-60
2022/08/04 06:09:20;;;;;;;10.87;4.53;;;;;;;23.41;100.00;101155.13;5113345;27;20464;-60
2022/08/04 06:11:48;;;;;;;14.82;4.68;;;;;;;23.46;100.00;101152.59;5103256;27;20294;-60
2022/08/04 06:14:36;;;;;;;6.35;4.15;;;;;;;23.56;100.00;101152.06;5121907;27;20074;-60
2022/08/04 06:17:05;;;;;;;10.93;4.53;;;;;;;23.64;100.00;101149.91;5117366;27;20051;-60
2022/08/04 06:19:54;;;;;;;7.90;4.35;;;;;;;23.75;100.00;101144.84;5106064;28;20063;-60
2022/08/04 06:22:43;;;;;;;12.13;4.38;;;;;;;23.84;100.00;101148.88;5107210;27;20063;-60
2022/08/04 06:25:14;;;;;;;8.30;4.40;;;;;;;23.90;100.00;101152.50;5115414;27;20404;-60
2022/08/04 06:27:41;;;;;;;10.15;4.53;;;;;;;23.94;100.00;101151.81;5110043;27;20073;-60
2022/08/04 06:30:13;;;;;;;11.43;5.10;;;;;;;24.02;100.00;101148.00;5085557;28;20424;-60
2022/08/04 06:32:54;;;;;;;11.25;4.55;;;;;;;24.10;100.00;101142.31;5117530;27;20278;-60
2022/08/04 06:35:31;;;;;;;14.02;4.30;;;;;;;24.23;100.00;101134.06;5105652;27;20419;-60
2022/08/04 06:37:58;;;;;;;13.07;4.63;;;;;;;24.33;100.00;101141.56;5115499;27;20379;-60
2022/08/04 06:40:27;;;;;;;13.55;4.68;;;;;;;24.41;100.00;101146.59;5107521;27;20055;-60
2022/08/04 06:43:05;;;;;;;11.32;5.10;;;;;;;24.52;100.00;101146.84;5117608;27;20055;-60
2022/08/04 06:45:34;;;;;;;8.98;4.40;;;;;;;24.59;100.00;101147.56;5109151;27;20409;-60
2022/08/04 06:48:02;;;;;;;9.85;4.43;;;;;;;24.68;100.00;101151.56;5110178;27;20075;-60
2022/08/04 06:50:30;;;;;;;;;;;;;;;24.79;100.00;101152.59;5107265;27;20048;-60
2022/08/04 06:53:17;;;;;;;11.55;4.63;;;;;;;24.83;100.00;101141.16;5096516;27;19997;-60
2022/08/04 06:55:46;;;;;;;10.82;5.00;;;;;;;24.94;100.00;101142.22;5118580;27;20059;-60
2022/08/04 06:58:14;;;;;;;13.48;4.55;;;;;;;25.04;100.00;101141.63;5114046;27;20162;-60
2022/08/04 07:00:43;;;;;;;10.27;4.47;;;;;;;25.16;100.00;101142.41;5108194;27;20062;-61
2022/08/04 07:03:10;;;;;;;15.38;5.20;;;;;;;25.24;100.00;101144.75;5102709;27;20138;-60
2022/08/04 07:05:38;;;;;;;11.50;4.72;;;;;;;25.31;100.00;101146.53;5113175;27;20051;-58
2022/08/04 07:08:06;;;;;;;7.60;4.25;;;;;;;25.41;100.00;101139.47;5111156;27;20136;-60
2022/08/04 07:10:33;;;;;;;;;;;;;;;25.53;100.00;101144.00;5100520;27;20062;-60
2022/08/04 07:13:00;;;;;;;11.45;4.18;;;;;;;25.59;100.00;101141.16;5105510;28;19924;-60
2022/08/04 07:15:27;;;;;;;12.97;4.50;;;;;;;25.64;100.00;101148.53;5108655;27;20051;-60
2022/08/04 07:17:58;;;;;;;13.52;5.22;;;;;;;25.62;100.00;101142.59;5103609;28;20283;-59
2022/08/04 07:20:27;;;;;;;16.70;5.13;;;;;;;25.67;100.00;101142.66;5092105;27;20054;-60
2022/08/04 07:23:04;;;;;;;13.45;5.05;;;;;;;25.71;100.00;101151.88;5115730;27;20058;-60
2022/08/04 07:25:35;;;;;;;11.65;4.93;;;;;;;25.78;100.00;101152.56;5086469;27;20555;-60
2022/08/04 07:28:26;;;;;;;12.70;4.97;;;;;;;25.83;99.39;101167.94;5113090;27;20439;-60
2022/08/04 07:30:55;;;;;;;13.13;5.70;;;;;;;25.82;99.86;101164.47;5107597;27;20051;-59
2022/08/04 07:33:23;;;;;;;9.52;4.60;;;;;;;25.87;100.00;101161.03;5109094;27;20065;-58
2022/08/04 07:35:52;;;;;;;13.50;4.60;;;;;;;25.96;99.92;101156.94;5098890;28;20291;-59
2022/08/04 07:38:37;;;;;;;15.02;4.82;;;;;;;26.05;99.84;101162.75;5105829;27;20079;-59
2022/08/04 07:41:21;;;;;;;12.15;3.90;;;;;;;26.13;97.30;101167.75;5110884;27;20097;-60
2022/08/04 07:44:04;;;;;;;13.35;4.40;;;;;;;26.16;98.53;101163.75;5104817;27;20132;-60
2022/08/04 07:46:30;;;;;;;12.60;4.43;;;;;;;26.20;95.81;101164.88;5104368;28;20235;-59
2022/08/04 07:48:59;;;;;;;12.48;3.72;;;;;;;26.33;96.60;101161.09;5105367;27;20501;-59
2022/08/04 07:51:26;;;;;;;9.45;3.95;;;;;;;26.33;89.27;101161.09;5114193;27;20410;-58
2022/08/04 07:53:54;;;;;;;10.15;3.55;;;;;;;26.44;89.92;101158.31;5122556;27;20047;-60
2022/08/04 07:56:23;;;;;;;16.48;4.07;;;;;;;26.49;86.17;101154.09;5113280;27;20116;-60
2022/08/04 07:58:49;;;;;;;8.93;3.65;;;;;;;26.57;84.98;101153.66;5121188;27;20135;-58
2022/08/04 08:01:17;;;;;;;14.65;3.35;;;;;;;26.58;85.56;101148.09;5101193;27;20052;-59
2022/08/04 08:03:45;;;;;;;19.92;3.85;;;;;;;26.63;86.23;101148.13;5113901;27;20111;-60
2022/08/04 08:06:11;;;;;;;12.18;4.03;;;;;;;26.74;86.38;101148.31;5111033;27;20150;-60
2022/08/04 08:09:00;;;;;;;14.95;3.97;;;;;;;26.73;85.58;101149.38;5117618;27;20040;-61
2022/08/04 08:11:43;;;;;;;11.23;3.78;;;;;;;26.79;85.89;101159.13;5114721;27;20643;-59
2022/08/04 08:14:30;;;;;;;17.15;3.95;;;;;;;26.88;86.69;101159.56;5103881;28;20063;-60
2022/08/04 08:16:59;;;;;;;13.10;3.13;;;;;;;26.91;85.55;101161.72;5099612;27;20054;-59
2022/08/04 08:19:25;;;;;;;9.82;2.90;;;;;;;26.94;85.36;101163.94;5096398;27;20583;-60
2022/08/04 08:21:52;;;;;;;10.23;3.10;;;;;;;27.02;86.11;101155.44;5104418;28;20063;-60
2022/08/04 08:24:26;;;;;;;12.20;3.42;;;;;;;27.13;84.36;101162.59;5097725;28;20051;-60
2022/08/04 08:26:54;;;;;;;10.52;3.53;;;;;;;27.32;84.00;101157.72;5110836;27;20521;-58
2022/08/04 08:29:21;;;;;;;;;;;;;;;27.50;83.95;101153.09;5098692;27;20055;-59
2022/08/04 08:31:48;;;;;;;15.90;3.95;;;;;;;27.56;82.60;101152.94;5100030;27;19931;-59
2022/08/04 08:34:26;;;;;;;15.98;3.85;;;;;;;27.80;83.30;101147.25;5101756;27;20147;-60
2022/08/04 08:37:03;;;;;;;11.95;3.38;;;;;;;28.19;83.58;101149.81;5111637;27;20055;-59
2022/08/04 08:40:09;;;;;;;10.18;3.90;;;;;;;28.45;80.67;101158.13;5106088;27;20412;-59
2022/08/04 08:43:09;;;;;;;16.85;4.68;;;;;;;28.76;79.73;101159.97;5102412;27;20645;-60
2022/08/04 08:46:22;;;;;;;9.82;3.58;;;;;;;29.02;80.87;101162.03;5110782;27;20420;-59
2022/08/04 08:49:37;;;;;;;15.02;4.13;;;;;;;29.35;76.81;101158.16;5086555;28;20087;-60
2022/08/04 08:52:34;;;;;;;10.88;3.60;;;;;;;29.65;77.80;101160.13;5100284;27;20059;-60
2022/08/04 08:55:42;;;;;;;12.82;4.10;;;;;;;29.82;74.86;101165.38;5105592;27;20059;-60
2022/08/04 08:58:11;;;;;;;6.75;3.60;;;;;;;30.05;74.26;101155.94;5097611;27;20051;-58
2022/08/04 09:00:56;;;;;;;9.98;4.05;;;;;;;30.28;73.44;101157.28;5099441;27;20058;-60
2022/08/04 09:03:23;;;;;;;11.05;3.05;;;;;;;30.68;74.31;101158.38;5098276;28;20058;-60
2022/08/04 09:06:18;;;;;;;14.85;4.13;;;;;;;30.74;71.96;101151.06;5088469;27;20832;-60
2022/08/04 09:09:18;;;;;;;15.65;4.10;;;;;;;30.71;72.99;101157.81;5106427;27;20051;-60
2022/08/04 09:11:55;;;;;;;9.32;3.85;;;;;;;30.74;74.62;101165.41;5110253;27;20388;-59
2022/08/04 09:14:33;;;;;;;10.65;4.88;;;;;;;30.34;73.70;101160.84;5095918;28;20055;-60
2022/08/04 09:17:04;;;;;;;13.98;4.80;;;;;;;30.14;74.52;101167.03;5099288;27;20061;-61
2022/08/04 09:19:41;;;;;;;9.55;4.43;;;;;;;30.19;76.05;101172.44;5102989;27;20453;-60
2022/08/04 09:22:19;;;;;;;11.82;5.00;;;;;;;30.17;75.53;101174.59;5092760;28;20051;-59
2022/08/04 09:25:00;;;;;;;10.45;4.75;;;;;;;30.10;76.21;101177.56;5101717;28;20051;-61
2022/08/04 09:27:39;;;;;;;13.60;5.40;;;;;;;30.12;78.35;101175.41;5094136;27;20423;-60
2022/08/04 09:30:11;;;;;;;12.40;6.18;;;;;;;30.01;78.28;101181.91;5112760;27;20049;-61
2022/08/04 09:32:37;;;;;;;11.25;5.05;;;;;;;29.84;78.89;101175.91;5094997;28;20471;-59
2022/08/04 09:35:36;;;;;;;11.73;5.03;;;;;;;30.02;77.40;101180.81;5106564;27;20057;-61
2022/08/04 09:38:26;;;;;;;13.13;5.50;;;;;;;30.14;80.20;101185.97;5116854;28;20040;-60
2022/08/04 09:41:09;;;;;;;16.48;5.72;;;;;;;30.19;77.61;101195.97;5099388;27;20051;-61
2022/08/04 09:44:29;;;;;;;15.55;5.50;;;;;;;30.34;76.34;101187.88;5096119;28;20463;-61
2022/08/04 09:47:37;;;;;;;10.60;4.97;;;;;;;30.54;75.58;101190.59;5102935;28;20056;-58
2022/08/04 09:50:33;;;;;;;11.23;4.75;;;;;;;30.70;75.96;101202.22;5092819;28;20514;-60
2022/08/04 09:53:24;;;;;;;10.32;4.20;;;;;;;30.62;74.38;101199.25;5102045;28;20058;-61
2022/08/04 09:56:26;;;;;;;12.70;4.85;;;;;;;30.80;74.00;101203.31;5099885;28;21052;-60
2022/08/04 09:59:09;;;;;;;14.00;5.03;;;;;;;30.90;75.50;101206.84;5116689;28;20048;-61
2022/08/04 10:01:41;;;;;;;12.20;4.60;;;;;;;30.88;76.13;101200.03;5094533;28;20420;-61
2022/08/04 10:04:11;;;;;;;8.90;4.05;;;;;;;30.93;76.26;101209.00;5098752;28;20058;-61
2022/08/04 10:07:15;;;;;;;9.80;4.00;;;;;;;30.99;73.32;101198.13;5084529;28;20051;-60
2022/08/04 10:10:00;;;;;;;12.85;4.25;;;;;;;30.92;73.62;101201.94;5108371;28;20562;-60
2022/08/04 10:13:04;;;;;;;8.35;3.35;;;;;;;30.89;72.27;101199.81;5115804;27;20492;-61
2022/08/04 10:15:42;;;;;;;10.20;3.58;;;;;;;30.77;72.77;101211.97;5113972;28;20062;-61
2022/08/04 10:18:29;;;;;;;8.82;2.80;;;;;;;30.74;71.69;101218.75;5115662;27;20423;-61
2022/08/04 10:21:02;;;;;;;10.90;2.80;;;;;;;30.52;70.73;101216.31;5091234;28;20527;-60
2022/08/04 10:23:51;;;;;;;7.97;2.72;;;;;;;30.54;72.17;101223.09;5103804;28;20055;-60
2022/08/04 10:26:44;;;;;;;7.25;2.38;;;;;;;30.41;71.70;101223.63;5102157;27;20507;-60
2022/08/04 10:29:35;;;;;;;10.73;2.22;;;;;;;30.40;72.66;101224.69;5112562;27;20126;-60
2022/08/04 10:32:20;;;;;;;9.95;2.58;;;;;;;30.30;73.18;101221.94;5097121;28;20043;-60
2022/08/04 10:35:01;;;;;;;8.23;2.45;;;;;;;30.10;71.82;101230.84;5100662;28;20051;-61
2022/08/04 10:37:36;;;;;;;9.30;2.15;;;;;;;30.01;72.20;101252.22;5095084;28;20083;-61
2022/08/04 10:40:44;;;;;;;8.00;2.33;;;;;;;29.80;73.79;101258.63;5101194;28;20050;-61
2022/08/04 10:43:34;;;;;;;5.50;2.42;;;;;;;29.52;74.00;101260.63;5092313;28;20077;-61
2022/08/04 10:46:12;;;;;;;8.35;2.17;;;;;;;29.38;76.56;101268.41;5095902;28;20563;-60
2022/08/04 10:48:46;;;;;;;8.68;2.70;;;;;;;29.18;77.33;101269.91;5101691;27;20383;-60
2022/08/04 10:51:35;;;;;;;12.02;2.88;;;;;;;28.96;79.36;101275.41;5106231;28;20054;-62
2022/08/04 10:54:33;;;;;;;6.97;2.78;;;;;;;28.79;80.74;101294.44;5115011;27;20058;-63
2022/08/04 10:57:07;;;;;;;11.60;2.83;;;;;;;28.61;81.96;101292.09;5107522;27;20051;-61
2022/08/04 10:59:39;;;;;;;9.35;2.75;;;;;;;28.61;83.60;101304.78;5100516;27;20055;-60
2022/08/04 11:02:29;;;;;;;8.10;2.22;;;;;;;28.47;83.68;101307.88;5120004;27;20069;-60
2022/08/04 11:05:22;;;;;;;6.53;2.30;;;;;;;28.35;86.42;101343.09;5105937;27;20138;-60
2022/08/04 11:07:54;;;;;;;8.25;2.40;;;;;;;27.93;95.20;101369.81;5108567;27;20769;-62
2022/08/04 11:10:24;;;;;;;14.40;2.85;;;;;;;27.48;100.00;101395.84;5106258;27;20043;-60
2022/08/04 11:12:57;;;;;;;8.70;2.38;;;;;;;27.26;100.00;101397.59;5119958;27;20057;-59
2022/08/04 11:15:37;;;;;;;13.40;3.35;;;;;;;26.97;100.00;101376.09;5111486;27;20062;-60
2022/08/04 11:18:12;;;;;;;10.90;3.10;;;;;;;26.91;100.00;101361.72;5101284;27;20046;-60
2022/08/04 11:20:51;;;;;;;7.75;3.15;;;;;;;26.79;100.00;101374.41;5109158;27;20051;-58
2022/08/04 11:23:25;;;;;;;13.07;4.13;;;;;;;26.69;100.00;101371.56;5104247;27;20543;-60
2022/08/04 11:25:59;;;;;;;10.38;3.40;;;;;;;26.59;100.00;101351.47;5117252;27;20051;-59
2022/08/04 11:28:59;;;;;;;12.70;4.50;;;;;;;26.56;100.00;101327.72;5095278;28;20048;-59
2022/08/04 11:31:39;;;;;;;13.93;4.00;;;;;;;26.51;100.00;101321.41;5100768;28;20110;-58
2022/08/04 11:34:21;;;;;;;15.00;4.03;;;;;;;26.42;100.00;101320.97;5100596;27;20058;-59
2022/08/04 11:37:16;;;;;;;8.77;3.88;;;;;;;26.39;100.00;101308.03;5112542;27;20400;-59
2022/08/04 11:39:47;;;;;;;12.93;3.75;;;;;;;26.41;100.00;101292.47;5091931;27;20419;-61
2022/08/04 11:42:19;;;;;;;10.32;3.97;;;;;;;26.41;100.00;101290.59;5112326;27;20136;-60
2022/08/04 11:44:50;;;;;;;9.55;3.30;;;;;;;26.37;100.00;101292.13;5102075;27;20055;-60
2022/08/04 11:47:31;;;;;;;11.63;3.45;;;;;;;26.35;100.00;101307.69;5105893;27;20210;-61
2022/08/04 11:50:01;;;;;;;7.68;3.40;;;;;;;26.34;100.00;101315.97;5098050;27;20506;-59
2022/08/04 11:52:29;;;;;;;9.55;3.40;;;;;;;26.37;100.00;101328.97;5095572;27;20522;-58
2022/08/04 11:54:57;;;;;;;12.23;3.35;;;;;;;26.32;100.00;101343.09;5112993;27;20046;-59
2022/08/04 11:57:25;;;;;;;9.50;3.38;;;;;;;26.24;100.00;101330.03;5106571;27;20051;-60
2022/08/04 12:00:05;;;;;;;8.00;3.15;;;;;;;26.21;100.00;101325.16;5110359;27;20078;-59
2022/08/04 12:02:48;;;;;;;8.02;3.10;;;;;;;26.11;100.00;101324.94;5100544;27;20055;-59
2022/08/04 12:05:19;;;;;;;11.07;3.40;;;;;;;26.10;100.00;101318.75;5096684;28;20105;-59
2022/08/04 12:08:24;;;;;;;11.20;2.80;;;;;;;26.12;100.00;101307.78;5107166;27;20043;-60
2022/08/04 12:11:08;;;;;;;12.55;3.47;;;;;;;26.12;100.00;101311.25;5114926;27;20047;-60
2022/08/04 12:14:19;;;;;;;6.22;3.00;;;;;;;26.14;100.00;101305.66;5108105;27;20054;-60
2022/08/04 12:17:05;;;;;;;8.73;3.67;;;;;;;26.07;100.00;101300.44;5104211;28;20077;-62
2022/08/04 12:19:38;;;;;;;17.02;4.03;;;;;;;26.02;100.00;101287.69;5111351;27;20047;-60
2022/08/04 12:22:26;;;;;;;7.80;3.35;;;;;;;26.03;100.00;101293.88;5103921;27;20055;-60